createdAt,value
2018-08-19T00:00:32.742Z,18.64
2018-08-19T00:03:02.308Z,18.64
2018-08-19T00:05:30.897Z,18.64
2018-08-19T00:07:59.453Z,18.62
2018-08-19T00:10:40.530Z,18.61
2018-08-19T00:13:10.486Z,18.61
2018-08-19T00:15:39.642Z,18.61
2018-08-19T00:18:09.970Z,18.60
2018-08-19T00:20:38.513Z,18.61
2018-08-19T00:23:07.641Z,18.63
2018-08-19T00:25:39.594Z,18.58
2018-08-19T00:28:09.769Z,18.57
2018-08-19T00:30:38.373Z,18.55
2018-08-19T00:33:07.146Z,18.55
2018-08-19T00:35:35.875Z,18.52
2018-08-19T00:38:04.345Z,18.44
2018-08-19T00:40:32.962Z,18.28
2018-08-19T00:43:01.576Z,18.09
2018-08-19T00:45:30.090Z,17.74
2018-08-19T00:47:58.881Z,17.64
2018-08-19T00:50:27.313Z,17.76
2018-08-19T00:52:56.216Z,17.80
2018-08-19T00:55:25.209Z,17.85
2018-08-19T00:57:59.821Z,17.89
2018-08-19T01:00:29.400Z,17.91
2018-08-19T01:02:57.925Z,17.94
2018-08-19T01:05:26.406Z,17.97
2018-08-19T01:07:55.085Z,17.47
2018-08-19T01:10:23.550Z,18.01
2018-08-19T01:12:52.186Z,18.04
2018-08-19T01:15:20.857Z,18.05
2018-08-19T01:17:49.297Z,18.07
2018-08-19T01:20:22.033Z,18.11
2018-08-19T01:22:50.586Z,18.13
2018-08-19T01:25:19.188Z,18.15
2018-08-19T01:27:47.966Z,18.16
2018-08-19T01:30:20.973Z,18.18
2018-08-19T01:32:49.689Z,18.20
2018-08-19T01:35:21.345Z,18.19
2018-08-19T01:37:49.817Z,18.19
2018-08-19T01:40:18.733Z,18.18
2018-08-19T01:42:47.824Z,18.18
2018-08-19T01:45:16.331Z,18.20
2018-08-19T01:47:44.877Z,18.19
2018-08-19T01:50:16.013Z,18.20
2018-08-19T01:52:45.362Z,18.22
2018-08-19T01:55:13.849Z,18.21
2018-08-19T01:57:45.877Z,18.23
2018-08-19T02:00:15.090Z,18.24
2018-08-19T02:03:01.986Z,18.22
2018-08-19T02:05:30.814Z,18.22
2018-08-19T02:08:01.717Z,18.22
2018-08-19T02:10:31.452Z,18.25
2018-08-19T02:13:00.485Z,18.28
2018-08-19T02:15:30.008Z,18.31
2018-08-19T02:18:04.649Z,18.35
2018-08-19T02:20:35.331Z,18.38
2018-08-19T02:23:06.231Z,18.40
2018-08-19T02:25:36.972Z,18.44
2018-08-19T02:28:06.813Z,18.45
2018-08-19T02:30:35.609Z,18.46
2018-08-19T02:33:04.614Z,18.46
2018-08-19T02:35:33.849Z,18.45
2018-08-19T02:38:02.685Z,18.44
2018-08-19T02:40:32.435Z,18.45
2018-08-19T02:43:01.134Z,18.47
2018-08-19T02:45:29.637Z,18.47
2018-08-19T02:47:58.128Z,18.49
2018-08-19T02:50:27.085Z,18.49
2018-08-19T02:52:55.553Z,18.49
2018-08-19T02:55:25.805Z,18.50
2018-08-19T02:57:59.438Z,18.48
2018-08-19T03:00:27.954Z,18.45
2018-08-19T03:02:56.425Z,18.39
2018-08-19T03:05:24.925Z,18.33
2018-08-19T03:07:53.722Z,18.09
2018-08-19T03:10:22.370Z,18.18
2018-08-19T03:12:50.845Z,18.11
2018-08-19T03:15:19.851Z,18.07
2018-08-19T03:17:48.860Z,18.03
2018-08-19T03:20:17.330Z,17.97
2018-08-19T03:22:46.241Z,17.90
2018-08-19T03:25:14.708Z,17.83
2018-08-19T03:27:43.209Z,17.75
2018-08-19T03:30:13.513Z,17.72
2018-08-19T03:32:46.990Z,17.67
2018-08-19T03:35:16.566Z,17.63
2018-08-19T03:37:45.309Z,17.59
2018-08-19T03:40:13.983Z,17.56
2018-08-19T03:42:42.557Z,17.51
2018-08-19T03:45:16.313Z,17.46
2018-08-19T03:47:44.872Z,17.44
2018-08-19T03:50:18.716Z,17.39
2018-08-19T03:52:47.261Z,17.37
2018-08-19T03:55:20.178Z,17.33
2018-08-19T03:57:49.337Z,17.31
2018-08-19T04:00:19.141Z,17.31
2018-08-19T04:02:47.749Z,17.31
2018-08-19T04:05:16.605Z,17.31
2018-08-19T04:07:45.046Z,17.29
2018-08-19T04:10:13.741Z,17.28
2018-08-19T04:12:42.768Z,17.27
2018-08-19T04:15:11.533Z,17.27
2018-08-19T04:17:40.066Z,17.27
2018-08-19T04:20:08.741Z,17.27
2018-08-19T04:22:37.178Z,17.25
2018-08-19T04:25:06.037Z,17.25
2018-08-19T04:27:34.707Z,17.24
2018-08-19T04:30:03.134Z,17.24
2018-08-19T04:32:32.501Z,17.26
2018-08-19T04:35:01.654Z,17.26
2018-08-19T04:37:30.413Z,17.26
2018-08-19T04:40:00.027Z,17.24
2018-08-19T04:42:28.977Z,17.23
2018-08-19T04:44:57.765Z,17.22
2018-08-19T04:47:31.165Z,17.23
2018-08-19T04:49:59.663Z,17.23
2018-08-19T04:52:28.193Z,17.24
2018-08-19T04:54:57.282Z,17.26
2018-08-19T04:57:25.743Z,17.28
2018-08-19T04:59:54.191Z,17.26
2018-08-19T05:02:23.028Z,17.27
2018-08-19T05:04:51.378Z,17.24
2018-08-19T05:07:19.837Z,17.22
2018-08-19T05:09:48.517Z,17.20
2018-08-19T05:12:16.957Z,17.18
2018-08-19T05:14:45.467Z,17.18
2018-08-19T05:17:14.033Z,17.15
2018-08-19T05:19:42.485Z,17.16
2018-08-19T05:22:13.166Z,17.17
2018-08-19T05:24:41.817Z,17.18
2018-08-19T05:27:10.477Z,17.17
2018-08-19T05:29:39.913Z,17.20
2018-08-19T05:32:13.334Z,17.25
2018-08-19T05:34:42.950Z,17.35
2018-08-19T05:37:11.464Z,17.42
2018-08-19T05:39:45.054Z,17.47
2018-08-19T05:42:14.405Z,17.42
2018-08-19T05:44:43.458Z,17.44
2018-08-19T05:47:18.575Z,17.40
2018-08-19T05:49:47.970Z,17.33
2018-08-19T05:52:21.772Z,17.32
2018-08-19T05:54:57.483Z,17.34
2018-08-19T05:57:26.321Z,17.32
2018-08-19T05:59:55.233Z,17.30
2018-08-19T06:02:33.635Z,17.31
2018-08-19T06:05:03.325Z,17.39
2018-08-19T06:07:31.886Z,17.49
2018-08-19T06:10:00.658Z,17.60
2018-08-19T06:12:29.143Z,17.65
2018-08-19T06:15:00.955Z,17.75
2018-08-19T06:17:29.877Z,17.69
2018-08-19T06:19:58.685Z,17.70
2018-08-19T06:22:32.443Z,17.74
2018-08-19T06:25:01.058Z,17.75
2018-08-19T06:27:32.768Z,17.77
2018-08-19T06:30:01.178Z,17.73
2018-08-19T06:32:32.384Z,17.72
2018-08-19T06:35:01.451Z,17.79
2018-08-19T06:37:29.681Z,17.87
2018-08-19T06:39:58.325Z,17.93
2018-08-19T06:42:27.185Z,18.00
2018-08-19T06:44:55.690Z,17.98
2018-08-19T06:47:24.508Z,18.11
2018-08-19T06:49:53.722Z,18.09
2018-08-19T06:52:22.992Z,18.10
2018-08-19T06:54:51.974Z,18.20
2018-08-19T06:57:20.505Z,18.30
2018-08-19T06:59:48.976Z,18.26
2018-08-19T07:02:17.791Z,18.28
2018-08-19T07:04:47.594Z,18.42
2018-08-19T07:07:17.287Z,18.50
2018-08-19T07:09:46.221Z,18.50
2018-08-19T07:12:17.374Z,18.40
2018-08-19T07:14:46.482Z,18.44
2018-08-19T07:17:15.637Z,18.63
2018-08-19T07:19:44.154Z,19.10
2018-08-19T07:22:15.908Z,19.36
2018-08-19T07:24:44.466Z,19.40
2018-08-19T07:27:12.971Z,19.50
2018-08-19T07:29:41.476Z,19.93
2018-08-19T07:32:11.489Z,20.36
2018-08-19T07:34:40.989Z,20.18
2018-08-19T07:37:09.988Z,19.78
2018-08-19T07:39:45.443Z,19.82
2018-08-19T07:42:14.476Z,19.84
2018-08-19T07:44:43.433Z,19.90
2018-08-19T07:47:11.937Z,19.90
2018-08-19T07:49:40.847Z,20.13
2018-08-19T07:52:09.409Z,20.38
2018-08-19T07:54:38.110Z,20.59
2018-08-19T07:57:16.569Z,20.48
2018-08-19T07:59:47.625Z,20.04
2018-08-19T08:02:16.273Z,19.91
2018-08-19T08:04:45.629Z,20.15
2018-08-19T08:07:14.848Z,20.60
2018-08-19T08:09:43.655Z,21.01
2018-08-19T08:12:13.541Z,21.31
2018-08-19T08:14:56.350Z,20.98
2018-08-19T08:17:26.223Z,21.21
2018-08-19T08:20:03.409Z,21.32
2018-08-19T08:22:32.833Z,21.36
2018-08-19T08:25:01.553Z,21.17
2018-08-19T08:27:31.113Z,21.06
2018-08-19T08:30:02.351Z,20.69
2018-08-19T08:32:30.797Z,20.41
2018-08-19T08:34:59.761Z,20.76
2018-08-19T08:37:28.581Z,20.56
2018-08-19T08:40:02.445Z,20.49
2018-08-19T08:42:45.301Z,20.52
2018-08-19T08:45:15.289Z,20.68
2018-08-19T08:47:43.933Z,21.36
2018-08-19T08:50:13.287Z,21.52
2018-08-19T08:52:44.661Z,21.22
2018-08-19T08:55:13.945Z,20.49
2018-08-19T08:57:42.469Z,20.31
2018-08-19T09:00:12.981Z,20.66
2018-08-19T09:02:41.453Z,20.95
2018-08-19T09:05:12.201Z,20.93
2018-08-19T09:07:41.966Z,20.72
2018-08-19T09:10:12.764Z,20.39
2018-08-19T09:12:52.418Z,20.18
2018-08-19T09:15:21.280Z,19.99
2018-08-19T09:17:49.859Z,20.49
2018-08-19T09:20:18.565Z,21.15
2018-08-19T09:22:47.745Z,21.87
2018-08-19T09:25:16.237Z,22.58
2018-08-19T09:27:45.078Z,22.88
2018-08-19T09:30:45.105Z,22.48
2018-08-19T09:33:14.273Z,21.85
2018-08-19T09:35:43.860Z,21.52
2018-08-19T09:38:15.001Z,21.27
2018-08-19T09:40:43.887Z,21.71
2018-08-19T09:43:12.522Z,22.22
2018-08-19T09:45:41.869Z,22.84
2018-08-19T09:48:11.122Z,22.51
2018-08-19T09:50:40.589Z,22.28
2018-08-19T09:53:09.165Z,22.78
2018-08-19T09:55:39.959Z,22.65
2018-08-19T09:58:20.018Z,22.63
2018-08-19T10:00:53.581Z,22.60
2018-08-19T10:03:22.153Z,22.16
2018-08-19T10:05:50.613Z,22.28
2018-08-19T10:08:22.125Z,22.30
2018-08-19T10:10:50.983Z,22.04
2018-08-19T10:13:19.481Z,21.68
2018-08-19T10:15:47.969Z,21.58
2018-08-19T10:18:16.712Z,21.76
2018-08-19T10:20:45.164Z,21.82
2018-08-19T10:23:13.730Z,21.86
2018-08-19T10:25:42.506Z,22.10
2018-08-19T10:28:11.278Z,22.52
2018-08-19T10:30:44.877Z,22.92
2018-08-19T10:33:13.977Z,23.07
2018-08-19T10:35:42.415Z,22.92
2018-08-19T10:38:10.941Z,22.87
2018-08-19T10:40:39.852Z,23.18
2018-08-19T10:43:09.518Z,22.77
2018-08-19T10:45:39.561Z,22.47
2018-08-19T10:48:10.146Z,21.70
2018-08-19T10:50:38.641Z,22.74
2018-08-19T10:53:16.705Z,22.67
2018-08-19T10:55:46.776Z,22.43
2018-08-19T10:58:15.286Z,22.49
2018-08-19T11:00:43.794Z,22.85
2018-08-19T11:03:18.467Z,22.97
2018-08-19T11:05:48.008Z,23.08
2018-08-19T11:08:16.463Z,22.68
2018-08-19T11:10:45.261Z,22.17
2018-08-19T11:13:17.640Z,21.97
2018-08-19T11:15:51.617Z,22.20
2018-08-19T11:18:29.641Z,22.40
2018-08-19T11:21:02.051Z,22.05
2018-08-19T11:23:30.825Z,21.75
2018-08-19T11:25:59.903Z,22.17
2018-08-19T11:28:37.615Z,22.48
2018-08-19T11:31:07.196Z,22.92
2018-08-19T11:33:43.470Z,23.39
2018-08-19T11:36:12.633Z,23.58
2018-08-19T11:38:41.723Z,24.45
2018-08-19T11:41:12.188Z,25.17
2018-08-19T11:43:44.294Z,25.23
2018-08-19T11:46:13.037Z,24.55
2018-08-19T11:48:42.235Z,24.01
2018-08-19T11:51:11.110Z,24.37
2018-08-19T11:53:39.630Z,24.46
2018-08-19T11:56:08.342Z,25.07
2018-08-19T11:58:43.262Z,24.98
2018-08-19T12:01:13.951Z,25.14
2018-08-19T12:03:55.373Z,24.73
2018-08-19T12:06:25.757Z,23.90
2018-08-19T12:08:55.993Z,23.77
2018-08-19T12:11:27.657Z,23.60
2018-08-19T12:13:56.373Z,24.24
2018-08-19T12:16:26.114Z,24.41
2018-08-19T12:18:54.784Z,24.58
2018-08-19T12:21:24.353Z,24.40
2018-08-19T12:24:06.861Z,24.33
2018-08-19T12:26:40.149Z,24.53
2018-08-19T12:29:08.587Z,25.07
2018-08-19T12:31:37.081Z,25.31
2018-08-19T12:34:05.590Z,25.16
2018-08-19T12:36:34.030Z,24.93
2018-08-19T12:39:02.859Z,25.09
2018-08-19T12:41:32.833Z,25.10
2018-08-19T12:44:01.631Z,25.12
2018-08-19T12:46:30.530Z,24.53
2018-08-19T12:48:59.442Z,24.67
2018-08-19T12:51:27.943Z,24.63
2018-08-19T12:53:56.582Z,24.24
2018-08-19T12:56:25.194Z,24.38
2018-08-19T12:58:53.649Z,24.36
2018-08-19T13:01:22.198Z,24.66
2018-08-19T13:03:50.666Z,24.56
2018-08-19T13:06:19.203Z,23.96
2018-08-19T13:08:47.714Z,23.45
2018-08-19T13:11:16.218Z,22.84
2018-08-19T13:13:44.649Z,23.02
2018-08-19T13:16:13.270Z,23.08
2018-08-19T13:18:42.352Z,23.00
2018-08-19T13:21:15.461Z,22.61
2018-08-19T13:23:44.333Z,22.66
2018-08-19T13:26:12.845Z,22.98
2018-08-19T13:28:44.390Z,23.40
2018-08-19T13:31:15.498Z,23.44
2018-08-19T13:33:43.989Z,23.24
2018-08-19T13:36:12.474Z,23.27
2018-08-19T13:38:41.220Z,23.81
2018-08-19T13:41:10.327Z,24.03
2018-08-19T13:43:38.838Z,24.27
2018-08-19T13:46:07.740Z,24.47
2018-08-19T13:48:36.496Z,24.20
2018-08-19T13:51:05.217Z,23.86
2018-08-19T13:53:33.665Z,23.59
2018-08-19T13:56:02.161Z,23.71
2018-08-19T13:58:30.669Z,23.67
2018-08-19T14:00:59.210Z,23.69
2018-08-19T14:03:27.681Z,23.51
2018-08-19T14:05:56.166Z,23.47
2018-08-19T14:08:24.734Z,23.46
2018-08-19T14:10:53.178Z,23.43
2018-08-19T14:13:21.705Z,22.78
2018-08-19T14:15:50.397Z,22.67
2018-08-19T14:18:18.854Z,22.34
2018-08-19T14:20:47.407Z,22.27
2018-08-19T14:23:16.322Z,22.82
2018-08-19T14:25:44.784Z,23.33
2018-08-19T14:28:13.347Z,23.05
2018-08-19T14:30:42.121Z,23.08
2018-08-19T14:33:10.641Z,23.33
2018-08-19T14:35:39.166Z,23.81
2018-08-19T14:38:07.725Z,24.34
2018-08-19T14:40:36.180Z,24.23
2018-08-19T14:43:04.682Z,24.26
2018-08-19T14:45:33.585Z,24.12
2018-08-19T14:48:02.061Z,23.92
2018-08-19T14:50:30.558Z,23.56
2018-08-19T14:52:59.672Z,22.98
2018-08-19T14:55:28.142Z,22.59
2018-08-19T14:57:56.637Z,22.69
2018-08-19T15:00:25.385Z,22.97
2018-08-19T15:02:53.834Z,22.72
2018-08-19T15:05:22.350Z,22.54
2018-08-19T15:07:50.969Z,22.33
2018-08-19T15:10:23.142Z,22.30
2018-08-19T15:12:51.679Z,22.23
2018-08-19T15:15:20.274Z,22.19
2018-08-19T15:17:52.942Z,22.27
2018-08-19T15:20:30.511Z,22.18
2018-08-19T15:23:19.227Z,22.41
2018-08-19T15:25:47.977Z,22.30
2018-08-19T15:28:17.297Z,22.27
2018-08-19T15:30:45.846Z,22.47
2018-08-19T15:33:15.159Z,22.66
2018-08-19T15:35:44.092Z,22.78
2018-08-19T15:38:12.859Z,22.63
2018-08-19T15:40:46.597Z,22.82
2018-08-19T15:43:15.201Z,23.14
2018-08-19T15:45:45.054Z,23.54
2018-08-19T15:48:13.722Z,23.45
2018-08-19T15:50:42.341Z,23.68
2018-08-19T15:53:11.643Z,24.36
2018-08-19T15:55:40.711Z,24.55
2018-08-19T15:58:09.181Z,24.20
2018-08-19T16:00:40.213Z,23.82
2018-08-19T16:03:09.943Z,23.35
2018-08-19T16:05:38.674Z,23.38
2018-08-19T16:08:07.213Z,23.76
2018-08-19T16:10:35.945Z,23.65
2018-08-19T16:13:06.343Z,23.24
2018-08-19T16:15:34.787Z,23.54
2018-08-19T16:18:03.550Z,23.71
2018-08-19T16:20:32.013Z,24.08
2018-08-19T16:23:00.574Z,24.36
2018-08-19T16:25:29.229Z,24.42
2018-08-19T16:27:57.718Z,24.40
2018-08-19T16:30:26.309Z,24.00
2018-08-19T16:32:55.022Z,23.52
2018-08-19T16:35:23.550Z,23.10
2018-08-19T16:37:52.057Z,22.98
2018-08-19T16:40:20.838Z,22.95
2018-08-19T16:42:49.645Z,22.84
2018-08-19T16:45:18.181Z,22.29
2018-08-19T16:47:47.173Z,22.23
2018-08-19T16:50:15.639Z,22.30
2018-08-19T16:52:44.614Z,22.28
2018-08-19T16:55:13.545Z,22.20
2018-08-19T16:57:41.998Z,21.90
2018-08-19T17:00:10.934Z,21.57
2018-08-19T17:02:39.808Z,21.27
2018-08-19T17:05:27.633Z,21.15
2018-08-19T17:07:56.586Z,21.04
2018-08-19T17:10:25.821Z,20.86
2018-08-19T17:12:54.310Z,20.75
2018-08-19T17:15:23.687Z,20.67
2018-08-19T17:17:52.419Z,20.56
2018-08-19T17:20:20.929Z,20.50
2018-08-19T17:22:49.498Z,20.41
2018-08-19T17:25:18.221Z,20.27
2018-08-19T17:27:46.912Z,20.22
2018-08-19T17:30:18.415Z,20.15
2018-08-19T17:32:55.640Z,20.08
2018-08-19T17:35:24.393Z,20.00
2018-08-19T17:37:53.964Z,19.95
2018-08-19T17:40:22.397Z,19.93
2018-08-19T17:42:50.950Z,19.88
2018-08-19T17:45:19.469Z,19.76
2018-08-19T17:47:47.939Z,19.67
2018-08-19T17:50:21.377Z,19.61
2018-08-19T17:52:49.818Z,19.53
2018-08-19T17:55:21.397Z,19.48
2018-08-19T17:57:49.947Z,19.43
2018-08-19T18:00:18.545Z,19.39
2018-08-19T18:02:47.265Z,19.32
2018-08-19T18:05:15.804Z,19.30
2018-08-19T18:07:48.645Z,19.25
2018-08-19T18:10:17.152Z,19.23
2018-08-19T18:12:45.653Z,19.18
2018-08-19T18:15:14.393Z,19.13
2018-08-19T18:17:52.925Z,19.09
2018-08-19T18:20:28.848Z,19.05
2018-08-19T18:22:58.047Z,19.06
2018-08-19T18:25:26.601Z,19.02
2018-08-19T18:27:55.282Z,18.97
2018-08-19T18:30:26.806Z,18.92
2018-08-19T18:32:55.261Z,18.87
2018-08-19T18:35:24.106Z,18.82
2018-08-19T18:37:52.601Z,18.77
2018-08-19T18:40:31.725Z,18.73
2018-08-19T18:43:00.737Z,18.68
2018-08-19T18:45:29.629Z,18.64
2018-08-19T18:48:00.109Z,18.58
2018-08-19T18:50:28.661Z,18.52
2018-08-19T18:52:57.226Z,18.48
2018-08-19T18:55:26.733Z,18.44
2018-08-19T18:57:56.343Z,18.40
2018-08-19T19:00:26.516Z,18.38
2018-08-19T19:02:58.941Z,18.36
2018-08-19T19:05:42.286Z,18.32
2018-08-19T19:08:13.328Z,18.28
2018-08-19T19:10:50.881Z,18.28
2018-08-19T19:13:21.362Z,18.27
2018-08-19T19:15:50.105Z,18.26
2018-08-19T19:18:19.153Z,18.23
2018-08-19T19:20:52.693Z,18.19
2018-08-19T19:23:26.602Z,18.20
2018-08-19T19:25:58.791Z,18.18
2018-08-19T19:28:27.942Z,18.16
2018-08-19T19:31:02.087Z,18.14
2018-08-19T19:33:31.093Z,18.14
2018-08-19T19:36:09.238Z,18.11
2018-08-19T19:38:43.810Z,18.10
2018-08-19T19:41:12.986Z,18.09
2018-08-19T19:43:41.461Z,18.08
2018-08-19T19:46:09.890Z,18.08
2018-08-19T19:48:38.481Z,18.09
2018-08-19T19:51:07.136Z,18.08
2018-08-19T19:53:35.589Z,18.09
2018-08-19T19:56:11.450Z,18.08
2018-08-19T19:58:40.159Z,18.04
2018-08-19T20:01:08.619Z,18.03
2018-08-19T20:04:07.710Z,18.01
2018-08-19T20:06:36.222Z,17.96
2018-08-19T20:09:04.789Z,17.95
2018-08-19T20:11:33.317Z,17.94
2018-08-19T20:14:02.998Z,17.93
2018-08-19T20:16:31.573Z,17.92
2018-08-19T20:19:00.054Z,17.91
2018-08-19T20:21:29.406Z,17.88
2018-08-19T20:23:59.050Z,17.86
2018-08-19T20:26:27.953Z,17.84
2018-08-19T20:28:58.041Z,17.84
2018-08-19T20:31:26.577Z,17.85
2018-08-19T20:33:55.207Z,17.83
2018-08-19T20:36:23.683Z,17.80
2018-08-19T20:38:52.132Z,17.80
2018-08-19T20:41:20.757Z,17.81
2018-08-19T20:43:49.745Z,17.79
2018-08-19T20:46:18.222Z,17.79
2018-08-19T20:48:47.077Z,17.76
2018-08-19T20:51:15.652Z,17.75
2018-08-19T20:53:44.102Z,17.73
2018-08-19T20:56:12.830Z,17.72
2018-08-19T20:58:41.792Z,17.72
2018-08-19T21:01:16.985Z,17.70
2018-08-19T21:03:45.905Z,17.69
2018-08-19T21:06:14.341Z,17.69
2018-08-19T21:08:42.821Z,17.69
2018-08-19T21:11:11.762Z,17.69
2018-08-19T21:13:40.197Z,17.68
2018-08-19T21:16:08.784Z,17.65
2018-08-19T21:18:37.665Z,17.65
2018-08-19T21:21:06.178Z,17.63
2018-08-19T21:23:34.674Z,17.63
2018-08-19T21:26:03.284Z,17.61
2018-08-19T21:28:31.769Z,17.63
2018-08-19T21:31:00.805Z,17.63
2018-08-19T21:33:29.290Z,17.60
2018-08-19T21:35:57.737Z,17.59
2018-08-19T21:38:26.245Z,17.58
2018-08-19T21:40:56.594Z,17.57
2018-08-19T21:43:27.121Z,17.41
2018-08-19T21:45:55.642Z,17.57
2018-08-19T21:48:24.416Z,17.57
2018-08-19T21:50:52.945Z,17.55
2018-08-19T21:53:21.697Z,17.53
2018-08-19T21:55:51.361Z,17.50
2018-08-19T21:58:20.338Z,17.53
2018-08-19T22:00:57.337Z,17.49
2018-08-19T22:03:31.013Z,17.46
2018-08-19T22:05:59.588Z,17.45
2018-08-19T22:08:28.033Z,17.41
2018-08-19T22:10:56.601Z,17.40
2018-08-19T22:13:25.205Z,17.37
2018-08-19T22:15:53.665Z,17.35
2018-08-19T22:18:23.671Z,17.34
2018-08-19T22:21:05.562Z,17.29
2018-08-19T22:23:39.782Z,17.27
2018-08-19T22:26:09.686Z,17.23
2018-08-19T22:28:38.481Z,17.22
2018-08-19T22:31:19.163Z,17.19
2018-08-19T22:33:50.163Z,17.18
2018-08-19T22:36:19.261Z,17.17
2018-08-19T22:38:48.183Z,17.17
2018-08-19T22:41:20.965Z,17.14
2018-08-19T22:43:49.693Z,17.13
2018-08-19T22:46:18.479Z,17.12
2018-08-19T22:48:47.008Z,17.08
2018-08-19T22:51:15.697Z,17.06
2018-08-19T22:53:44.308Z,17.05
2018-08-19T22:56:12.797Z,17.04
2018-08-19T22:58:41.969Z,17.04
2018-08-19T23:01:10.548Z,17.01
2018-08-19T23:03:39.044Z,17.00
2018-08-19T23:06:14.133Z,17.00
2018-08-19T23:08:42.647Z,16.98
2018-08-19T23:11:11.191Z,16.98
2018-08-19T23:13:51.024Z,16.97
2018-08-19T23:16:21.985Z,16.97
2018-08-19T23:18:50.469Z,16.98
2018-08-19T23:21:19.313Z,16.97
2018-08-19T23:23:47.757Z,16.95
2018-08-19T23:26:16.213Z,16.93
2018-08-19T23:28:45.052Z,16.91
2018-08-19T23:31:13.588Z,16.90
2018-08-19T23:33:42.265Z,16.87
2018-08-19T23:36:11.621Z,16.88
2018-08-19T23:38:40.305Z,16.88
2018-08-19T23:41:08.995Z,16.87
2018-08-19T23:43:37.686Z,16.88
2018-08-19T23:46:06.452Z,16.88
2018-08-19T23:48:34.918Z,16.87
2018-08-19T23:51:04.045Z,16.86
2018-08-19T23:53:32.532Z,16.88
2018-08-19T23:56:00.975Z,16.86
2018-08-19T23:58:29.817Z,16.85
